createdAt,value
2023-04-29T00:00:35.000Z,442.6051940917969
2023-04-29T00:01:37.000Z,443.8044128417969
2023-04-29T00:02:39.000Z,442.2523498535156
2023-04-29T00:03:41.000Z,441.8299560546875
2023-04-29T00:04:43.000Z,439.69085693359375
2023-04-29T00:05:45.000Z,438.3029479980469
2023-04-29T00:06:48.000Z,438.7413024902344
2023-04-29T00:07:50.000Z,436.2942810058594
2023-04-29T00:08:52.000Z,435.9665222167969
2023-04-29T00:09:54.000Z,439.8439636230469
2023-04-29T00:10:56.000Z,438.2392883300781
2023-04-29T00:11:58.000Z,438.5284423828125
2023-04-29T00:13:00.000Z,438.2974853515625
2023-04-29T00:14:03.000Z,438.2330627441406
2023-04-29T00:15:05.000Z,442.3550720214844
2023-04-29T00:16:07.000Z,441.56585693359375
2023-04-29T00:17:09.000Z,440.1235046386719
2023-04-29T00:18:11.000Z,440.7535400390625
2023-04-29T00:19:13.000Z,443.33392333984375
2023-04-29T00:20:15.000Z,443.2620544433594
2023-04-29T00:21:17.000Z,444.5538024902344
2023-04-29T00:22:20.000Z,445.7867736816406
2023-04-29T00:23:22.000Z,446.010498046875
2023-04-29T00:24:24.000Z,446.8570556640625
2023-04-29T00:25:26.000Z,447.8032531738281
2023-04-29T00:26:28.000Z,445.7462463378906
2023-04-29T00:27:30.000Z,444.3403625488281
2023-04-29T00:28:33.000Z,446.66119384765625
2023-04-29T00:29:35.000Z,446.49456787109375
2023-04-29T00:30:37.000Z,444.5176086425781
2023-04-29T00:31:39.000Z,444.4653015136719
2023-04-29T00:32:41.000Z,442.4819030761719
2023-04-29T00:33:43.000Z,441.7694396972656
2023-04-29T00:34:45.000Z,439.84136962890625
2023-04-29T00:35:48.000Z,439.1159362792969
2023-04-29T00:36:50.000Z,442.5863342285156
2023-04-29T00:37:52.000Z,441.7437438964844
2023-04-29T00:38:54.000Z,445.3072814941406
2023-04-29T00:39:56.000Z,445.75653076171875
2023-04-29T00:40:58.000Z,444.0549011230469
2023-04-29T00:42:00.000Z,443.6387939453125
2023-04-29T00:43:03.000Z,444.60675048828125
2023-04-29T00:44:05.000Z,445.36572265625
2023-04-29T00:45:07.000Z,444.72381591796875
2023-04-29T00:46:09.000Z,442.7970886230469
2023-04-29T00:47:11.000Z,442.3132629394531
2023-04-29T00:48:13.000Z,443.08355712890625
2023-04-29T00:49:15.000Z,443.45574951171875
2023-04-29T00:50:18.000Z,445.65802001953125
2023-04-29T00:51:20.000Z,446.0622863769531
2023-04-29T00:52:22.000Z,445.4669189453125
2023-04-29T00:53:24.000Z,445.1093444824219
2023-04-29T00:54:26.000Z,447.44268798828125
2023-04-29T00:55:28.000Z,447.1658020019531
2023-04-29T00:56:30.000Z,445.44012451171875
2023-04-29T00:57:33.000Z,445.41748046875
2023-04-29T00:58:35.000Z,443.528076171875
2023-04-29T00:59:37.000Z,440.6839904785156
2023-04-29T01:00:39.000Z,439.1777648925781
2023-04-29T01:01:41.000Z,440.3086242675781
2023-04-29T01:02:43.000Z,442.9483642578125
2023-04-29T01:03:46.000Z,441.9784851074219
2023-04-29T01:04:48.000Z,439.36114501953125
2023-04-29T01:05:50.000Z,439.73150634765625
2023-04-29T01:06:52.000Z,438.5192565917969
2023-04-29T01:07:54.000Z,437.24395751953125
2023-04-29T01:08:56.000Z,435.51934814453125
2023-04-29T01:09:59.000Z,432.77008056640625
2023-04-29T01:11:01.000Z,433.0601806640625
2023-04-29T01:12:03.000Z,434.7138671875
2023-04-29T01:13:05.000Z,438.21337890625
2023-04-29T01:14:07.000Z,441.3491516113281
2023-04-29T01:15:09.000Z,440.7401123046875
2023-04-29T01:16:11.000Z,440.16802978515625
2023-04-29T01:17:14.000Z,440.3891296386719
2023-04-29T01:18:16.000Z,440.25140380859375
2023-04-29T01:19:18.000Z,438.25732421875
2023-04-29T01:20:20.000Z,439.7660217285156
2023-04-29T01:21:22.000Z,439.75146484375
2023-04-29T01:22:24.000Z,440.9150695800781
2023-04-29T01:23:26.000Z,440.4870300292969
2023-04-29T01:24:29.000Z,440.0810852050781
2023-04-29T01:25:31.000Z,440.4363098144531
2023-04-29T01:26:33.000Z,438.2228698730469
2023-04-29T01:27:35.000Z,439.0570068359375
2023-04-29T01:28:37.000Z,436.6359558105469
2023-04-29T01:29:39.000Z,434.54034423828125
2023-04-29T01:30:41.000Z,434.9645080566406
2023-04-29T01:31:44.000Z,433.8695373535156
2023-04-29T01:32:46.000Z,435.37261962890625
2023-04-29T01:33:48.000Z,436.5924377441406
2023-04-29T01:34:50.000Z,436.8659973144531
2023-04-29T01:35:52.000Z,436.5561218261719
2023-04-29T01:36:54.000Z,434.9346618652344
2023-04-29T01:37:56.000Z,432.0516662597656
2023-04-29T01:38:59.000Z,431.22894287109375
2023-04-29T01:40:01.000Z,433.44183349609375
2023-04-29T01:41:03.000Z,432.74542236328125
2023-04-29T01:42:05.000Z,434.79034423828125
2023-04-29T01:43:07.000Z,435.5354919433594
2023-04-29T01:44:09.000Z,434.1043395996094
2023-04-29T01:45:11.000Z,438.4049987792969
2023-04-29T01:46:14.000Z,439.50860595703125
2023-04-29T01:47:16.000Z,440.2362365722656
2023-04-29T01:48:18.000Z,440.7102966308594
2023-04-29T01:49:20.000Z,441.6545104980469
2023-04-29T01:50:22.000Z,443.4859619140625
2023-04-29T01:51:24.000Z,445.1396484375
2023-04-29T01:52:26.000Z,448.056884765625
2023-04-29T01:53:28.000Z,449.4759216308594
2023-04-29T01:54:31.000Z,450.5969543457031
2023-04-29T01:55:33.000Z,452.0902099609375
2023-04-29T01:56:35.000Z,451.5566711425781
2023-04-29T01:57:37.000Z,453.17608642578125
2023-04-29T01:58:39.000Z,452.88238525390625
2023-04-29T01:59:41.000Z,452.4540710449219
2023-04-29T02:00:44.000Z,451.0334777832031
2023-04-29T02:01:46.000Z,451.13092041015625
2023-04-29T02:02:48.000Z,451.11578369140625
2023-04-29T02:03:50.000Z,449.82952880859375
2023-04-29T02:04:52.000Z,449.2572937011719
2023-04-29T02:05:54.000Z,449.14874267578125
2023-04-29T02:06:56.000Z,446.71405029296875
2023-04-29T02:07:59.000Z,445.9158935546875
2023-04-29T02:09:01.000Z,446.6736145019531
2023-04-29T02:10:03.000Z,445.5665283203125
2023-04-29T02:11:05.000Z,446.9613952636719
2023-04-29T02:12:07.000Z,445.8743896484375
2023-04-29T02:13:09.000Z,446.95843505859375
2023-04-29T02:14:11.000Z,447.7508544921875
2023-04-29T02:15:13.000Z,447.72509765625
2023-04-29T02:16:16.000Z,448.2436828613281
2023-04-29T02:17:18.000Z,448.4212951660156
2023-04-29T02:18:20.000Z,447.1051025390625
2023-04-29T02:19:22.000Z,445.0974426269531
2023-04-29T02:20:24.000Z,443.7254638671875
2023-04-29T02:21:26.000Z,443.39239501953125
2023-04-29T02:22:28.000Z,441.8038024902344
2023-04-29T02:23:31.000Z,444.0419006347656
2023-04-29T02:24:33.000Z,445.92987060546875
2023-04-29T02:25:35.000Z,446.1289367675781
2023-04-29T02:26:37.000Z,444.16351318359375
2023-04-29T02:27:39.000Z,443.4767150878906
2023-04-29T02:28:41.000Z,445.8252258300781
2023-04-29T02:29:44.000Z,445.1330871582031
2023-04-29T02:30:46.000Z,445.147216796875
2023-04-29T02:31:48.000Z,444.454345703125
2023-04-29T02:32:50.000Z,445.95733642578125
2023-04-29T02:33:52.000Z,448.45806884765625
2023-04-29T02:34:54.000Z,448.33978271484375
2023-04-29T02:35:56.000Z,447.66094970703125
2023-04-29T02:36:59.000Z,448.0662841796875
2023-04-29T02:38:01.000Z,449.870849609375
2023-04-29T02:39:03.000Z,449.9859619140625
2023-04-29T02:40:05.000Z,451.03204345703125
2023-04-29T02:41:07.000Z,450.4832763671875
2023-04-29T02:42:09.000Z,448.59735107421875
2023-04-29T02:43:11.000Z,450.1658020019531
2023-04-29T02:44:13.000Z,450.81982421875
2023-04-29T02:45:16.000Z,449.54571533203125
2023-04-29T02:46:18.000Z,448.5192565917969
2023-04-29T02:47:20.000Z,448.4466247558594
2023-04-29T02:48:22.000Z,449.20391845703125
2023-04-29T02:49:24.000Z,449.8897399902344
2023-04-29T02:50:26.000Z,449.96673583984375
2023-04-29T02:51:29.000Z,452.718994140625
2023-04-29T02:52:31.000Z,453.9577941894531
2023-04-29T02:53:33.000Z,455.0872802734375
2023-04-29T02:54:35.000Z,454.2110595703125
2023-04-29T02:55:37.000Z,454.5589904785156
2023-04-29T02:56:39.000Z,453.3905029296875
2023-04-29T02:57:41.000Z,453.4358215332031
2023-04-29T02:58:44.000Z,452.406005859375
2023-04-29T02:59:46.000Z,453.04937744140625
2023-04-29T03:00:48.000Z,454.9278259277344
2023-04-29T03:01:50.000Z,456.7031555175781
2023-04-29T03:02:52.000Z,455.3645324707031
2023-04-29T03:03:54.000Z,455.039306640625
2023-04-29T03:04:57.000Z,453.8860168457031
2023-04-29T03:05:59.000Z,452.6989440917969
2023-04-29T03:07:01.000Z,452.92474365234375
2023-04-29T03:08:03.000Z,451.6951599121094
2023-04-29T03:09:05.000Z,451.7794494628906
2023-04-29T03:10:07.000Z,454.53521728515625
2023-04-29T03:11:09.000Z,456.55841064453125
2023-04-29T03:12:12.000Z,457.21942138671875
2023-04-29T03:13:14.000Z,456.9346008300781
2023-04-29T03:14:16.000Z,456.14215087890625
2023-04-29T03:15:18.000Z,458.4230651855469
2023-04-29T03:16:20.000Z,457.34857177734375
2023-04-29T03:17:22.000Z,458.2732238769531
2023-04-29T03:18:24.000Z,456.3641052246094
2023-04-29T03:19:26.000Z,456.03057861328125
2023-04-29T03:20:29.000Z,456.9720458984375
2023-04-29T03:21:31.000Z,456.8392028808594
2023-04-29T03:22:33.000Z,457.41265869140625
2023-04-29T03:23:35.000Z,456.72625732421875
2023-04-29T03:24:37.000Z,457.1233825683594
2023-04-29T03:25:39.000Z,455.5744323730469
2023-04-29T03:26:41.000Z,454.4149475097656
2023-04-29T03:27:44.000Z,454.37506103515625
2023-04-29T03:28:46.000Z,456.3666687011719
2023-04-29T03:29:48.000Z,458.55279541015625
2023-04-29T03:30:50.000Z,457.4202575683594
2023-04-29T03:31:52.000Z,457.3541259765625
2023-04-29T03:32:54.000Z,456.6299743652344
2023-04-29T03:33:56.000Z,455.4757995605469
2023-04-29T03:34:59.000Z,454.2061462402344
2023-04-29T03:36:01.000Z,451.72418212890625
2023-04-29T03:37:03.000Z,450.7049865722656
2023-04-29T03:38:05.000Z,449.14520263671875
2023-04-29T03:39:07.000Z,448.42205810546875
2023-04-29T03:40:09.000Z,448.313720703125
2023-04-29T03:41:12.000Z,447.80828857421875
2023-04-29T03:42:14.000Z,447.51666259765625
2023-04-29T03:43:16.000Z,446.9401550292969
2023-04-29T03:44:18.000Z,449.0162353515625
2023-04-29T03:45:20.000Z,447.1894226074219
2023-04-29T03:46:22.000Z,447.3984680175781
2023-04-29T03:47:24.000Z,448.97509765625
2023-04-29T03:48:27.000Z,447.4859313964844
2023-04-29T03:49:29.000Z,446.5028076171875
2023-04-29T03:50:31.000Z,446.052490234375
2023-04-29T03:51:33.000Z,449.56689453125
2023-04-29T03:52:35.000Z,452.5284423828125
2023-04-29T03:53:37.000Z,451.44097900390625
2023-04-29T03:54:39.000Z,449.75079345703125
2023-04-29T03:55:42.000Z,451.3036193847656
2023-04-29T03:56:44.000Z,450.9927978515625
2023-04-29T03:57:46.000Z,451.5204772949219
2023-04-29T03:58:48.000Z,449.9065246582031
2023-04-29T03:59:50.000Z,448.435302734375
2023-04-29T04:00:52.000Z,448.0238342285156
2023-04-29T04:01:54.000Z,446.9310302734375
2023-04-29T04:02:57.000Z,445.7689514160156
2023-04-29T04:03:59.000Z,443.0884704589844
2023-04-29T04:05:01.000Z,444.25860595703125
2023-04-29T04:06:03.000Z,445.1773681640625
2023-04-29T04:07:05.000Z,444.1738586425781
2023-04-29T04:08:07.000Z,446.43975830078125
2023-04-29T04:09:09.000Z,448.7995910644531
2023-04-29T04:10:12.000Z,447.6340026855469
2023-04-29T04:11:14.000Z,448.90399169921875
2023-04-29T04:12:16.000Z,446.93212890625
2023-04-29T04:13:18.000Z,443.2869873046875
2023-04-29T04:14:20.000Z,441.8410949707031
2023-04-29T04:15:22.000Z,441.3584289550781
2023-04-29T04:16:24.000Z,442.3132629394531
2023-04-29T04:17:27.000Z,443.3983154296875
2023-04-29T04:18:29.000Z,443.57275390625
2023-04-29T04:19:31.000Z,443.6947021484375
2023-04-29T04:20:33.000Z,444.3258056640625
2023-04-29T04:21:35.000Z,443.0672302246094
2023-04-29T04:22:37.000Z,441.74554443359375
2023-04-29T04:23:40.000Z,441.2901306152344
2023-04-29T04:24:42.000Z,441.76495361328125
2023-04-29T04:25:44.000Z,444.87518310546875
2023-04-29T04:26:46.000Z,447.67889404296875
2023-04-29T04:27:48.000Z,448.7952575683594
2023-04-29T04:28:50.000Z,448.85369873046875
2023-04-29T04:29:52.000Z,447.8145446777344
2023-04-29T04:30:55.000Z,448.37139892578125
2023-04-29T04:31:57.000Z,445.9620666503906
2023-04-29T04:32:59.000Z,448.0269470214844
2023-04-29T04:34:01.000Z,449.0772399902344
2023-04-29T04:35:03.000Z,449.95953369140625
2023-04-29T04:36:05.000Z,450.0551452636719
2023-04-29T04:37:08.000Z,449.08642578125
2023-04-29T04:38:10.000Z,448.31329345703125
2023-04-29T04:39:12.000Z,446.6347351074219
2023-04-29T04:40:14.000Z,446.426513671875
2023-04-29T04:41:16.000Z,446.508056640625
2023-04-29T04:42:18.000Z,448.19744873046875
2023-04-29T04:43:20.000Z,445.24591064453125
2023-04-29T04:44:23.000Z,446.6478576660156
2023-04-29T04:45:25.000Z,448.91241455078125
2023-04-29T04:46:27.000Z,450.1573791503906
2023-04-29T04:47:29.000Z,451.00250244140625
2023-04-29T04:48:31.000Z,451.032470703125
2023-04-29T04:49:33.000Z,451.2536926269531
2023-04-29T04:50:35.000Z,452.6189270019531
2023-04-29T04:51:38.000Z,450.5436096191406
2023-04-29T04:52:40.000Z,451.0216979980469
2023-04-29T04:53:42.000Z,448.7338562011719
2023-04-29T04:54:44.000Z,449.36474609375
2023-04-29T04:55:46.000Z,450.2783508300781
2023-04-29T04:56:48.000Z,450.6589050292969
2023-04-29T04:57:51.000Z,452.4462585449219
2023-04-29T04:58:53.000Z,452.04547119140625
2023-04-29T04:59:55.000Z,451.6299133300781
2023-04-29T05:00:57.000Z,452.7049255371094
2023-04-29T05:01:59.000Z,454.3619689941406
2023-04-29T05:03:01.000Z,452.4792175292969
2023-04-29T05:04:03.000Z,450.0143737792969
2023-04-29T05:05:06.000Z,449.44891357421875
2023-04-29T05:06:08.000Z,450.340576171875
2023-04-29T05:07:10.000Z,450.5919494628906
2023-04-29T05:08:12.000Z,446.2860107421875
2023-04-29T05:09:14.000Z,445.0495300292969
2023-04-29T05:10:16.000Z,441.630126953125
2023-04-29T05:11:18.000Z,439.69482421875
2023-04-29T05:12:21.000Z,441.20880126953125
2023-04-29T05:13:23.000Z,441.46514892578125
2023-04-29T05:14:25.000Z,442.9928894042969
2023-04-29T05:15:27.000Z,443.9173583984375
2023-04-29T05:16:29.000Z,444.0347900390625
2023-04-29T05:17:31.000Z,443.75909423828125
2023-04-29T05:18:34.000Z,443.5428771972656
2023-04-29T05:19:36.000Z,444.53729248046875
2023-04-29T05:20:38.000Z,444.2857360839844
2023-04-29T05:21:40.000Z,442.76129150390625
2023-04-29T05:22:42.000Z,441.5487976074219
2023-04-29T05:23:44.000Z,443.2070007324219
2023-04-29T05:24:46.000Z,443.4557189941406
2023-04-29T05:25:49.000Z,445.1129150390625
2023-04-29T05:26:51.000Z,444.0433044433594
2023-04-29T05:27:53.000Z,445.0133361816406
2023-04-29T05:28:55.000Z,443.26751708984375
2023-04-29T05:29:57.000Z,441.1026916503906
2023-04-29T05:30:59.000Z,440.5207214355469
2023-04-29T05:32:02.000Z,439.9527587890625
2023-04-29T05:33:04.000Z,439.2528076171875
2023-04-29T05:34:06.000Z,439.389892578125
2023-04-29T05:35:08.000Z,438.78253173828125
2023-04-29T05:36:10.000Z,437.9848327636719
2023-04-29T05:37:12.000Z,437.76348876953125
2023-04-29T05:38:14.000Z,438.049560546875
2023-04-29T05:39:17.000Z,438.0921325683594
2023-04-29T05:40:19.000Z,437.57940673828125
2023-04-29T05:41:21.000Z,435.18896484375
2023-04-29T05:42:23.000Z,434.87274169921875
2023-04-29T05:43:25.000Z,434.8025817871094
2023-04-29T05:44:27.000Z,434.17010498046875
2023-04-29T05:45:29.000Z,433.0048828125
2023-04-29T05:46:31.000Z,434.2405700683594
2023-04-29T05:47:34.000Z,432.2726745605469
2023-04-29T05:48:36.000Z,433.3314208984375
2023-04-29T05:49:38.000Z,432.4707336425781
2023-04-29T05:50:40.000Z,433.5911865234375
2023-04-29T05:51:42.000Z,433.7377014160156
2023-04-29T05:52:44.000Z,434.8582458496094
2023-04-29T05:53:46.000Z,433.669921875
2023-04-29T05:54:49.000Z,436.0207214355469
2023-04-29T05:55:51.000Z,434.4770812988281
2023-04-29T05:56:53.000Z,433.9024963378906
2023-04-29T05:57:55.000Z,434.1120300292969
2023-04-29T05:58:57.000Z,436.3868408203125
2023-04-29T05:59:59.000Z,436.3847351074219
2023-04-29T06:01:01.000Z,436.3624267578125
2023-04-29T06:02:04.000Z,437.9520568847656
2023-04-29T06:03:06.000Z,440.6024475097656
2023-04-29T06:04:08.000Z,442.1116943359375
2023-04-29T06:05:10.000Z,443.4009094238281
2023-04-29T06:06:12.000Z,440.9908752441406
2023-04-29T06:07:14.000Z,441.2030334472656
2023-04-29T06:08:16.000Z,438.5591125488281
2023-04-29T06:09:19.000Z,437.6495056152344
2023-04-29T06:10:21.000Z,437.8402404785156
2023-04-29T06:11:23.000Z,435.0280456542969
2023-04-29T06:12:25.000Z,435.78436279296875
2023-04-29T06:13:27.000Z,437.7724609375
2023-04-29T06:14:29.000Z,438.6196594238281
2023-04-29T06:15:31.000Z,438.6894226074219
2023-04-29T06:16:34.000Z,437.52093505859375
2023-04-29T06:17:36.000Z,438.02587890625
2023-04-29T06:18:38.000Z,439.9118957519531
2023-04-29T06:19:40.000Z,439.4111328125
2023-04-29T06:20:42.000Z,437.6903381347656
2023-04-29T06:21:44.000Z,436.64990234375
2023-04-29T06:22:46.000Z,435.1036682128906
2023-04-29T06:23:49.000Z,433.96905517578125
2023-04-29T06:24:51.000Z,433.99285888671875
2023-04-29T06:25:53.000Z,433.1542663574219
2023-04-29T06:26:55.000Z,432.38775634765625
2023-04-29T06:27:57.000Z,433.0354309082031
2023-04-29T06:28:59.000Z,432.96734619140625
2023-04-29T06:30:01.000Z,432.3485412597656
2023-04-29T06:31:04.000Z,431.8106384277344
2023-04-29T06:32:06.000Z,433.0422668457031
2023-04-29T06:33:08.000Z,433.64801025390625
2023-04-29T06:34:10.000Z,431.7080993652344
2023-04-29T06:35:12.000Z,440.34307861328125
2023-04-29T06:36:14.000Z,437.970458984375
2023-04-29T06:37:16.000Z,436.08416748046875
2023-04-29T06:38:19.000Z,433.7359619140625
2023-04-29T06:39:21.000Z,432.9057312011719
2023-04-29T06:40:23.000Z,432.1648254394531
2023-04-29T06:41:25.000Z,432.2606506347656
2023-04-29T06:42:27.000Z,433.6004943847656
2023-04-29T06:43:29.000Z,432.54132080078125
2023-04-29T06:44:31.000Z,432.0345458984375
2023-04-29T06:45:34.000Z,432.7547302246094
2023-04-29T06:46:36.000Z,433.06036376953125
2023-04-29T06:47:38.000Z,434.552734375
2023-04-29T06:48:40.000Z,437.8902282714844
2023-04-29T06:49:42.000Z,438.0213623046875
2023-04-29T06:50:44.000Z,438.6233215332031
2023-04-29T06:51:46.000Z,439.4222717285156
2023-04-29T06:52:49.000Z,440.0479736328125
2023-04-29T06:53:51.000Z,439.6006164550781
2023-04-29T06:54:53.000Z,439.67926025390625
2023-04-29T06:55:55.000Z,437.82598876953125
2023-04-29T06:56:57.000Z,435.16400146484375
2023-04-29T06:57:59.000Z,434.27398681640625
2023-04-29T06:59:01.000Z,432.0759582519531
2023-04-29T07:00:04.000Z,432.04339599609375
2023-04-29T07:01:06.000Z,431.4894104003906
2023-04-29T07:02:08.000Z,431.099609375
2023-04-29T07:03:10.000Z,429.4126892089844
2023-04-29T07:04:12.000Z,429.3979187011719
2023-04-29T07:05:14.000Z,429.78570556640625
2023-04-29T07:06:17.000Z,431.4346618652344
2023-04-29T07:07:19.000Z,428.7701416015625
2023-04-29T07:08:21.000Z,427.6117248535156
2023-04-29T07:09:23.000Z,424.60357666015625
2023-04-29T07:10:25.000Z,425.5625305175781
2023-04-29T07:11:27.000Z,425.011474609375
2023-04-29T07:12:29.000Z,426.0937805175781
2023-04-29T07:13:32.000Z,423.8088684082031
2023-04-29T07:14:34.000Z,421.0426940917969
2023-04-29T07:15:36.000Z,422.5345458984375
2023-04-29T07:16:38.000Z,423.727783203125
2023-04-29T07:17:40.000Z,423.7660217285156
2023-04-29T07:18:42.000Z,425.4429931640625
2023-04-29T07:19:44.000Z,424.0895080566406
2023-04-29T07:20:47.000Z,424.4961853027344
2023-04-29T07:21:49.000Z,424.9881591796875
2023-04-29T07:22:51.000Z,425.5691833496094
2023-04-29T07:23:53.000Z,424.611328125
2023-04-29T07:24:55.000Z,424.9899597167969
2023-04-29T07:25:57.000Z,425.3548889160156
2023-04-29T07:26:59.000Z,424.8147277832031
2023-04-29T07:28:02.000Z,425.47784423828125
2023-04-29T07:29:04.000Z,427.2599182128906
2023-04-29T07:30:06.000Z,426.1910095214844
2023-04-29T07:31:08.000Z,427.0620422363281
2023-04-29T07:32:10.000Z,427.8652038574219
2023-04-29T07:33:12.000Z,428.65509033203125
2023-04-29T07:34:15.000Z,428.25140380859375
2023-04-29T07:35:17.000Z,428.010498046875
2023-04-29T07:36:19.000Z,428.7596130371094
2023-04-29T07:37:21.000Z,428.40789794921875
2023-04-29T07:38:23.000Z,430.4416198730469
2023-04-29T07:39:25.000Z,428.3133850097656
2023-04-29T07:40:28.000Z,424.41864013671875
2023-04-29T07:41:30.000Z,422.43896484375
2023-04-29T07:42:32.000Z,424.93853759765625
2023-04-29T07:43:34.000Z,425.3269348144531
2023-04-29T07:44:36.000Z,422.7320556640625
2023-04-29T07:45:38.000Z,423.413818359375
2023-04-29T07:46:41.000Z,424.9388427734375
2023-04-29T07:47:43.000Z,425.14495849609375
2023-04-29T07:48:45.000Z,426.6932678222656
2023-04-29T07:49:47.000Z,423.9610900878906
2023-04-29T07:50:49.000Z,420.8502197265625
2023-04-29T07:51:51.000Z,420.4120178222656
2023-04-29T07:52:54.000Z,421.2428283691406
2023-04-29T07:53:56.000Z,422.9947814941406
2023-04-29T07:54:58.000Z,424.4075622558594
2023-04-29T07:56:00.000Z,425.8263854980469
2023-04-29T07:57:02.000Z,425.0430603027344
2023-04-29T07:58:04.000Z,426.99786376953125
2023-04-29T07:59:06.000Z,426.8405456542969
2023-04-29T08:00:09.000Z,426.4784240722656
2023-04-29T08:01:11.000Z,425.05010986328125
2023-04-29T08:02:13.000Z,425.357421875
2023-04-29T08:03:15.000Z,422.95574951171875
2023-04-29T08:04:17.000Z,421.3468322753906
2023-04-29T08:05:19.000Z,421.8123474121094
2023-04-29T08:06:22.000Z,422.66571044921875
2023-04-29T08:07:24.000Z,425.2829284667969
2023-04-29T08:08:26.000Z,425.8160705566406
2023-04-29T08:09:29.000Z,426.2278137207031
2023-04-29T08:10:31.000Z,425.46697998046875
2023-04-29T08:11:33.000Z,428.40704345703125
2023-04-29T08:12:35.000Z,426.4319152832031
2023-04-29T08:13:37.000Z,426.8451232910156
2023-04-29T08:14:39.000Z,428.65374755859375
2023-04-29T08:15:41.000Z,429.86956787109375
2023-04-29T08:16:44.000Z,430.0625305175781
2023-04-29T08:17:46.000Z,430.8379821777344
2023-04-29T08:18:48.000Z,432.4154052734375
2023-04-29T08:19:50.000Z,432.1463317871094
2023-04-29T08:20:52.000Z,432.3118591308594
2023-04-29T08:21:54.000Z,433.77874755859375
2023-04-29T08:22:56.000Z,433.7469177246094
2023-04-29T08:23:59.000Z,431.9096374511719
2023-04-29T08:25:01.000Z,430.83148193359375
2023-04-29T08:26:03.000Z,429.2879333496094
2023-04-29T08:27:05.000Z,430.797607421875
2023-04-29T08:28:07.000Z,429.8915100097656
2023-04-29T08:29:09.000Z,429.9874572753906
2023-04-29T08:30:11.000Z,428.3875427246094
2023-04-29T08:31:14.000Z,429.0787353515625
2023-04-29T08:32:16.000Z,430.5120544433594
2023-04-29T08:33:18.000Z,431.5919189453125
2023-04-29T08:34:20.000Z,433.1488037109375
2023-04-29T08:35:22.000Z,430.5273742675781
2023-04-29T08:36:24.000Z,430.73480224609375
2023-04-29T08:37:27.000Z,428.0928955078125
2023-04-29T08:38:29.000Z,428.36724853515625
2023-04-29T08:39:31.000Z,430.11175537109375
2023-04-29T08:40:33.000Z,429.7027893066406
2023-04-29T08:41:35.000Z,430.4542236328125
2023-04-29T08:42:37.000Z,430.11346435546875
2023-04-29T08:43:39.000Z,431.1844482421875
2023-04-29T08:44:42.000Z,428.9183654785156
2023-04-29T08:45:44.000Z,428.922607421875
2023-04-29T08:46:46.000Z,428.5852966308594
2023-04-29T08:47:48.000Z,427.3903503417969
2023-04-29T08:48:50.000Z,428.8460388183594
2023-04-29T08:49:52.000Z,428.7015686035156
2023-04-29T08:50:55.000Z,428.693603515625
2023-04-29T08:51:57.000Z,427.7301940917969
2023-04-29T08:52:59.000Z,428.96466064453125
2023-04-29T08:54:01.000Z,432.1004943847656
2023-04-29T08:55:03.000Z,429.3059997558594
2023-04-29T08:56:05.000Z,429.54266357421875
2023-04-29T08:57:07.000Z,432.6751708984375
2023-04-29T08:58:10.000Z,434.423583984375
2023-04-29T08:59:12.000Z,433.3966369628906
2023-04-29T09:00:14.000Z,431.4833984375
2023-04-29T09:01:16.000Z,431.6766357421875
2023-04-29T09:02:18.000Z,431.9598083496094
2023-04-29T09:03:20.000Z,432.49560546875
2023-04-29T09:04:22.000Z,433.64971923828125
2023-04-29T09:05:25.000Z,432.98040771484375
2023-04-29T09:06:27.000Z,433.908447265625
2023-04-29T09:07:29.000Z,435.46514892578125
2023-04-29T09:08:31.000Z,435.3026428222656
2023-04-29T09:09:33.000Z,435.05279541015625
2023-04-29T09:10:35.000Z,435.5348205566406
2023-04-29T09:11:37.000Z,431.91290283203125
2023-04-29T09:12:40.000Z,426.2999267578125
2023-04-29T09:13:42.000Z,423.4162292480469
2023-04-29T09:14:44.000Z,421.8902282714844
2023-04-29T09:15:46.000Z,421.3559265136719
2023-04-29T09:16:48.000Z,421.27569580078125
2023-04-29T09:17:50.000Z,423.1736145019531
2023-04-29T09:18:52.000Z,421.1229248046875
2023-04-29T09:19:54.000Z,421.57135009765625
2023-04-29T09:20:57.000Z,419.2709045410156
2023-04-29T09:21:59.000Z,419.2335205078125
2023-04-29T09:23:01.000Z,419.0011291503906
2023-04-29T09:24:03.000Z,418.37164306640625
2023-04-29T09:25:05.000Z,417.5995788574219
2023-04-29T09:26:12.000Z,417.0396728515625
2023-04-29T09:27:15.000Z,419.87347412109375
2023-04-29T09:28:17.000Z,422.5285949707031
2023-04-29T09:29:19.000Z,420.42962646484375
2023-04-29T09:30:21.000Z,421.2175598144531
2023-04-29T09:31:23.000Z,425.96600341796875
2023-04-29T09:32:25.000Z,424.94189453125
2023-04-29T09:33:28.000Z,424.26165771484375
2023-04-29T09:34:30.000Z,424.47894287109375
2023-04-29T09:35:32.000Z,424.4720764160156